Mesquite, Nevada Weather observations

Data are for observation ending at time listed.
 Day   Time    Ave.   Ave.  Ave.  Vector   Max.   Stn.    Total    Solar   Ave.  
  of    of     Air    Rel.  Wind   Wind    Wind   Baro.  Precip.   Rad.    Soil  
Year   Day     Temp.  Hum.  Speed  Dir.    Gust   Pres.                    Temp. 
2016   (PST)    F      %     mph   deg.    mph     mb.     in.     W/m2     F   
------------------------------------------------------------------------------
 270   21:40   75.3    20    3.3    52      4.6   952.1    0.00       0    88.2
 270   21:50   75.9    19    1.5    34      2.9   952.1    0.00       0    88.1
 270   22:00   76.7    19    1.4    18      3.1   952.2    0.00       0    88.0
 270   22:10   78.3    18    4.0    11      5.8   952.1    0.00       0    87.9
 270   22:20   78.1    19    2.7    11      5.3   952.1    0.00       0    87.7
 270   22:30   75.8    20    1.6    90      4.2   952.2    0.00       0    87.6
 270   22:40   74.2    21    3.3   107      4.9   952.2    0.00       0    87.5
 270   22:50   72.0    23    4.1    80      5.4   952.2    0.00       0    87.3
 270   23:00   71.3    23    2.3    60      4.1   952.1    0.00       0    87.2
 270   23:10   72.4    23    2.1   134      4.0   952.0    0.00       0    87.1
 270   23:20   74.0    21    1.3   124      3.2   952.0    0.00       0    87.0
 270   23:30   73.0    22    1.6    80      3.3   952.0    0.00       0    86.9
 270   23:40   72.3    23    0.5    50      1.8   951.9    0.00       0    86.7
 270   23:50   73.4    23    3.4   334      6.1   951.8    0.00       0    86.6
 271    0:00   76.2    21    4.0   329     11.6   951.7    0.00       0    86.5
 271    0:10   75.3    22    4.4    51      9.4   951.8    0.00       0    86.4
 271    0:20   69.3    27    2.2    58      4.2   951.8    0.00       0    86.3
 271    0:30   67.4    28    2.5     2      4.0   951.8    0.00       0    86.2
 271    0:40   70.1    27    3.2   327      5.0   951.8    0.00       0    86.0
 271    0:50   73.3    24    5.0   345      6.9   951.9    0.00       0    85.9
 271    1:00   75.7    23    5.1   351      9.3   951.9    0.00       0    85.8
 271    1:10   76.6    22    6.5   345      9.6   951.8    0.00       0    85.7
 271    1:20   76.2    22    6.9   350     10.4   951.6    0.00       0    85.6
 271    1:30   76.1    22    6.2   348     11.1   951.5    0.00       0    85.5
 271    1:40   71.5    25    5.7    54      9.6   951.4    0.00       0    85.4
 271    1:50   69.7    26    4.6    43      6.6   951.5    0.00       1    85.3
 271    2:00   69.6    26    4.6    48      6.6   951.4    0.00       0    85.2
 271    2:10   69.9    26    4.6    39      6.3   951.4    0.00       0    85.1
 271    2:20   69.4    27    4.7    57      6.1   951.3    0.00       0    85.0
 271    2:30   69.2    27    4.1    26      5.1   951.2    0.00       1    84.9
 271    2:40   69.3    27    2.7    42      3.9   951.3    0.00       0    84.8
 271    2:50   68.8    28    2.7    21      4.0   951.3    0.00       0    84.7
 271    3:00   68.3    28    2.5    24      3.9   951.2    0.00       0    84.6
 271    3:10   69.0    27    1.6    50      2.3   951.3    0.00       0    84.5
 271    3:20   69.1    27    1.0    74      2.9   951.3    0.00       0    84.5
 271    3:30   68.4    28    1.3    73      4.0   951.4    0.00       0    84.3
 271    3:40   67.5    30    0.6   240      2.6   951.5    0.00       0    84.2
 271    3:50   66.7    30    1.3    26      4.5   951.5    0.00       0    84.1
 271    4:00   65.6    31    1.5    32      3.2   951.6    0.00       0    84.1
 271    4:10   65.0    32    3.7    36      5.9   951.6    0.00       0    84.0
 271    4:20   63.9    32    4.3    27      6.4   951.6    0.00       0    83.9
 271    4:30   65.5    31    2.6   353      6.0   951.6    0.00       0    83.8
 271    4:40   65.4    31    3.4    32      6.2   951.6    0.00       0    83.7
 271    4:50   64.0    32    4.5    29      6.4   951.7    0.00       0    83.6
 271    5:00   64.5    32    4.8    25      6.9   951.7    0.00       0    83.5
 271    5:10   64.7    32    4.6    67      8.5   951.7    0.00       0    83.4
 271    5:20   64.3    32    5.8    82      7.0   951.8    0.00       1    83.3
 271    5:30   62.8    34    4.3    69      5.3   952.0    0.00       3    83.2
 271    5:40   63.5    34    4.0    47      4.7   952.1    0.00       3    83.0
 271    5:50   64.3    33    3.1    29      4.5   952.2    0.00       8    83.0
 271    6:00   65.3    32    3.0    52      4.7   952.3    0.00      10    82.8
 271    6:10   66.4    30    3.1    43      3.9   952.4    0.00      43    82.8
 271    6:20   69.1    28    2.1    83      3.7   952.5    0.00      86    82.6
 271    6:30   70.9    27    0.7   358      2.2   952.6    0.00     111    82.5
 271    6:40   72.4    26    1.4   287      2.7   952.7    0.00     128    82.4
 271    6:50   72.1    27    3.4   282      5.6   952.7    0.00     137    82.3
 271    7:00   72.8    26    4.8   303      6.8   952.6    0.00     191    82.3
 271    7:10   73.1    27    2.2   233      4.2   952.6    0.00     219    82.2
 271    7:20   73.4    27    1.1    90      3.0   952.6    0.00     246    82.2
 271    7:30   73.6    27    2.8    25      4.3   952.7    0.00     273    82.1
 271    7:40   74.9    25    2.6    41      4.5   952.8    0.00     299    82.1
 271    7:50   75.5    24    3.5    58      5.5   952.8    0.00     326    82.2
 271    8:00   76.7    23    3.9    82      6.4   952.9    0.00     351    82.3
 271    8:10   77.9    22    3.5    71      5.3   952.9    0.00     375    82.4
 271    8:20   79.1    21    3.2    78      6.1   953.0    0.00     394    82.6
 271    8:30   79.9    20    3.8    66      5.8   953.0    0.00     411    82.7
 271    8:40   80.3    20    4.2    72      6.8   953.0    0.00     431    83.0
 271    8:50   81.7    20    3.7    92      6.5   953.0    0.00     448    83.2
 271    9:00   82.3    19    3.6    60      6.9   953.1    0.00     467    83.4
 271    9:10   83.0    19    4.0    68      6.1   953.0    0.00     485    83.7
 271    9:20   83.8    18    3.8    59      5.8   953.0    0.00     501    84.0
 271    9:30   85.6    16    3.5    58      7.2   952.8    0.00     515    84.3
 271    9:40   86.9    15    3.1    54      5.1   952.7    0.00     529    84.6
 271    9:50   88.2    14    2.2    82      5.6   952.6    0.00     542    85.0
 271   10:00   89.7    14    2.2   172      4.7   952.4    0.00     553    85.2
 271   10:10   89.9    14    1.7   173      4.2   952.3    0.00     565    85.4
 271   10:20   90.3    14    1.7   117      3.7   952.1    0.00     576    85.5
 271   10:30   90.7    14    1.6   326      4.4   952.0    0.00     584    85.6
 271   10:40   91.0    13    1.8   290      5.3   951.8    0.00     592    85.7
 271   10:50   90.9    14    2.4   282      5.0   951.6    0.00     598    85.7
 271   11:00   90.8    14    2.8   308      5.0   951.5    0.00     604    85.8
 271   11:10   91.1    13    2.6   284      5.3   951.3    0.00     608    85.8
 271   11:20   90.5    13    3.6   270      6.4   951.1    0.00     609    85.8
 271   11:30   90.6    13    4.2   241      8.6   951.0    0.00     612    85.8
 271   11:40   90.8    13    3.6   256      6.9   950.8    0.00     613    85.9
 271   11:50   91.6    13    1.6   264      5.4   950.6    0.00     612    86.0
 271   12:00   92.6    13    2.3   200      5.6   950.5    0.00     608    86.1
 271   12:10   92.4    13    2.7   213      5.9   950.3    0.00     605    86.2
 271   12:20   92.4    13    2.5   276      5.3   950.2    0.00     599    86.4
 271   12:30   93.7    12    1.3   280      4.6   950.0    0.00     593    86.6
 271   12:40   93.7    12    2.5   302      5.6   949.8    0.00     583    86.9
 271   12:50   93.7    12    3.4   269      9.5   949.6    0.00     576    87.2
 271   13:00   93.8    12    3.3   234      7.7   949.5    0.00     564    87.5
 271   13:10   93.9    13    3.2   244     10.4   949.3    0.00     552    87.8
 271   13:20   93.6    12    4.5   241      8.7   949.2    0.00     540    88.2
 271   13:30   94.1    12    4.0   236      8.3   949.1    0.00     526    88.5
 271   13:40   94.1    12    3.9   224      7.4   949.0    0.00     511    88.9
 271   13:50   94.3    12    4.5   239      8.8   948.9    0.00     495    89.2
 271   14:00   95.0    12    4.5   208      8.5   948.9    0.00     477    89.6
 271   14:10   95.3    12    4.4   197      9.4   948.8    0.00     457    90.0
 271   14:20   95.0    12    5.6   234     11.9   948.7    0.00     439    90.4
 271   14:30   94.3    12    5.2   227      9.5   948.7    0.00     417    90.7
 271   14:40   94.1    12    6.3   238     12.4   948.5    0.00     397    91.1
 271   14:50   94.6    12    3.8   229      8.4   948.5    0.00     378    91.4
 271   15:00   94.3    12    5.9   239     10.7   948.4    0.00     351    91.7
 271   15:10   94.7    12    5.1   205     11.5   948.4    0.00     325    92.0
 271   15:20   94.0    12    7.5   239     13.7   948.2    0.00     300    92.2
 271   15:30   94.1    12    6.8   243     14.3   948.1    0.00     283    92.4
 271   15:40   94.1    12    6.1   223     15.6   948.0    0.00     258    92.6
 271   15:50   93.5    12    7.9   234     14.1   948.0    0.00     228    92.8
 271   16:00   93.3    13    8.1   239     16.7   948.0    0.00     218    92.8
 271   16:10   93.0    13    7.0   234     14.7   948.0    0.00     183    92.9
 271   16:20   92.9    13    6.2   227     12.2   948.0    0.00     159    93.0
 271   16:30   92.7    13    5.5   232     10.7   948.1    0.00     134    93.0
 271   16:40   92.4    13    5.3   236     12.6   948.1    0.00     109    93.0
 271   16:50   91.7    14    5.9   236     11.8   948.2    0.00      86    93.0
 271   17:00   90.7    14    6.5   240     10.7   948.1    0.00      48    92.9
 271   17:10   90.0    14    6.0   237     11.3   948.1    0.00      19    92.8
 271   17:20   89.5    15    4.3   234      8.3   948.3    0.00      14    92.7
 271   17:30   88.9    15    3.1   222      7.7   948.5    0.00      11    92.6
 271   17:40   88.4    15    2.1   217      6.7   948.5    0.00       4    92.5
 271   17:50   88.0    16    3.4   253      6.2   948.5    0.00       3    92.4
 271   18:00   87.9    16    4.4   255      7.6   948.3    0.00       1    92.3
 271   18:10   88.0    16    5.8   254      9.9   948.2    0.00       1    92.1
 271   18:20   87.8    16    5.0   246     10.4   948.3    0.00       1    91.9
 271   18:30   87.5    16    4.7   238     10.6   948.4    0.00       1    91.8
 271   18:40   87.4    16    4.7   236      9.3   948.6    0.00       1    91.7
 271   18:50   87.0    17    4.4   243      8.1   948.7    0.00       1    91.5
 271   19:00   86.7    18    4.6   258      8.0   948.7    0.00       0    91.4
 271   19:10   86.1    18    5.1   266      8.8   948.7    0.00       1    91.3
 271   19:20   85.7    18    3.5   272      7.0   948.8    0.00       0    91.1
 271   19:30   85.2    19    2.4   301      4.0   948.9    0.00       0    91.0
 271   19:40   84.0    20    1.9   299      3.9   949.0    0.00       0    90.8
 271   19:50   81.4    22    4.2    63      6.7   949.2    0.00       1    90.7
 271   20:00   79.8    22    3.8    46      6.6   949.3    0.00       1    90.6
 271   20:10   80.9    20    6.5    14      9.6   949.3    0.00       1    90.4
 271   20:20   81.8    19    5.8     8      7.7   949.4    0.00       1    90.3
 271   20:30   80.5    20    4.3    56      8.0   949.5    0.00       1    90.2
 271   20:40   80.7    20    4.1    17      7.0   949.5    0.00       1    90.1
 271   20:50   80.1    20    4.0    20      7.7   949.6    0.00       0    89.9
 271   21:00   79.6    21    1.4   145      4.5   949.7    0.00       0    89.7
 271   21:10   79.5    21    3.1   148      5.1   949.8    0.00       1    89.6
 271   21:20   79.0    21    3.3   116      4.6   949.9    0.00       1    89.5
 271   21:30   78.3    22    2.3    80      4.0   949.8    0.00       0    89.4

Return to Mesquite, Nevada graphs page.


Western Regional Climate Center,wrcc@dri.edu